NCAR-RAP Real-Time Weather Data

Output produced by METARs form (23 June 2018  19:30 UTC)
found at http://weather.rap.ucar.edu/surface/
 
RJOI 231855Z 30006KT 9999 FEW040 20/17 A2970 RMK SLP057 T02000172
RJOI 231755Z 00000KT 9999 SKC 21/18 A2969 RMK SLP055 T02060178 10217 20206 55000
RJOI 231655Z 18004KT 9999 SKC 21/18 A2969 RMK SLP053 T02060178
RJOI 231555Z 00000KT 9999 BKN010 BKN045 BKN080 21/18 A2969 RMK SLP054 T02110183
RJOI 231455Z 00000KT 9999 FEW010 BKN020 OVC045 22/18 A2970 RMK SLP057 T02170183 402440217 50000
RJOI 231355Z 18003KT 9999 FEW010 BKN020 OVC045 22/18 A2971 RMK SLP059 T02170183
RJOI 231255Z 12004KT 9999 FEW010 BKN045 BKN060 22/18 A2970 RMK SLP058 T02170183
RJOI 231155Z 14004KT 9999 FEW020 BKN035 OVC060 22/18 A2970 RMK SLP057 60000 70004 T02170183 10233 20217 51010
RJOI 231055Z COR 00000KT 9999 BKN045 OVC080 22/18 A2969 RMK SLP054 T02170178
RJOI 230955Z 12004KT 9999 FEW025 BKN045 BKN080 22/18 A2967 RMK SLP047 T02170178
RJOI 230855Z 14006KT 9999 FEW020 BKN045 BKN060 23/17 A2967 RMK SHRAE26 SLP047 P0000 60000 T02280172 50003
RJOI 230755Z COR 17010KT 8000 -SHRA BR FEW025 BKN045 BKN060 23/18 A2968 RMK SHRAB52 SLP050 P0000 T02280178
RJOI 230655Z 15008KT 8000 BR FEW025 BKN045 BKN080 22/18 A2966 RMK SLP045 T02220183
RJOI 230555Z 16011KT 9999 FEW030 BKN050 BKN080 23/18 A2965 RMK SLP039 60000 T02280183 10244 20228 56007
RJOI 230455Z 16010KT 9999 FEW030 BKN045 BKN080 23/19 A2966 RMK SLP043 T02330189
RJOI 230355Z 16007KT 9999 FEW030 BKN045 BKN100 24/19 A2966 RMK SLP042 T02390189
RJOI 230255Z 15005KT 9000 BR FEW030 BKN040 BKN100 24/20 A2968 RMK SHRAE40 SLP049 P0000 60000 T02390200 55003
RJOI 230155Z 12006KT 9000 -SHRA FEW025 BKN100 OVC140 23/19 A2967 RMK SLP047 P0000 T02280194
RJOI 230055Z 10004KT 9999 -SHRA FEW025 BKN120 OVC150 23/18 A2968 RMK SHRAB32 SLP051 P0000 T02330183
RJOI 222355Z 27004KT 9999 FEW025 BKN150 BKN230 23/18 A2969 RMK SLP052 60004 T02330178 10233 20217 55003
RJOI 222255Z 03003KT 9999 FEW010 BKN150 BKN230 23/18 A2968 RMK SLP050 P0000 T02330178
RJOI 222155Z 35005KT 9999 -SHRA FEW013 BKN050 OVC100 22/18 A2969 RMK SLP052 FG BANK W P0000 T02220183
RJOI 222114Z 31004KT 9999 -SHRA FEW013 BKN050 OVC100 22/18 A2969 RMK SLP053 WR
RJOI 222055Z 28005KT 9999 -SHRA FEW013 BKN050 OVC100 22/19 A2969 RMK SLP054 P0002 60004 T02170189 57014
RJOI 221955Z 05004KT 9000 -SHRA BR FEW020 BKN040 OVC080 22/18 A2971 RMK SHRAB08 SLP060 P0002 T02220183
RJOI 221855Z 34003KT 9999 FEW040 OVC100 23/17 A2972 RMK SLP064 T02280172
RJOI 221755Z 30007KT 9999 FEW040 BKN120 OVC200 23/18 A2973 RMK SLP068 T02280178 10250 20228 55010
RJOI 221655Z 01004KT 9999 BKN140 OVC200 23/18 A2972 RMK SLP065 T02330183
RJOI 221555Z 28004KT 9999 FEW040 BKN140 OVC200 23/18 A2974 RMK SLP072 T02330178
RJOI 221455Z 30004KT 9999 FEW040 BKN140 OVC200 24/17 A2977 RMK SLP080 T02390167 402940194 58010
RJOI 221355Z 34004KT 9999 FEW040 BKN140 OVC200 24/16 A2979 RMK SLP087 T02440156
RJOI 221255Z 31005KT 9999 FEW030 BKN140 OVC200 24/15 A2980 RMK SLP090 T02440150
RJOI 221155Z 12003KT 9999 FEW060 BKN140 BKN200 25/19 A2979 RMK SLP089 T02500194 10294 20250 53010
RJOI 221055Z 00000KT 9999 FEW060 BKN140 BKN200 26/19 A2978 RMK SLP083 T02610194
RJOI 220955Z 16006KT 9999 FEW050 BKN100 BKN180 27/18 A2977 RMK SLP082 T02670178
RJOI 220855Z 18008KT 9999 FEW050 BKN100 BKN180 28/16 A2976 RMK SLP078 T02830161 55000
RJOI 220755Z 18007KT 9999 FEW050 BKN090 BKN180 28/18 A2976 RMK SLP077 T02830183
RJOI 220655Z 19005KT 9999 FEW080 BKN180 BKN240 28/15 A2976 RMK SLP076 T02830150
RJOI 220555Z 17004KT 9999 BKN080 BKN120 BKN180 29/17 A2977 RMK SLP081 T02890172 10289 20233 56017
RJOI 220455Z 19004KT 9999 FEW025 BKN180 BKN250 27/18 A2978 RMK SLP083 T02720183
RJOI 220355Z 10003KT 9999 FEW025 FEW200 BKN250 27/18 A2979 RMK SLP086 T02670178
RJOI 220255Z 11005KT 9999 FEW020 SCT200 BKN250 26/18 A2982 RMK SLP097 T02560183 57010
RJOI 220155Z 09005KT 9999 FEW020 BKN250 26/18 A2983 RMK SLP102 T02560183
RJOI 220055Z 04006KT 9999 FEW003 BKN250 25/17 A2984 RMK SLP104 T02500167
RJOI 212355Z 05005KT 9999 FEW003 BKN250 24/17 A2984 RMK SLP105 T02390167 10244 20194 51007
RJOI 212255Z 32004KT 9999 FEW008 BKN250 23/16 A2985 RMK SLP107 T02280161
RJOI 212155Z 32003KT 9999 FEW030 BKN210 22/16 A2984 RMK SLP103 T02170161
RJOI 212055Z 31006KT 9999 FEW030 BKN210 20/16 A2982 RMK SLP096 T02000156 51007
RJOI 211955Z 30008KT 9999 FEW030 19/17 A2982 RMK SLP096 T01940167
RJOI 211855Z 30005KT 9999 FEW030 20/17 A2980 RMK SLP092 T02000172
RJOI 211755Z 31007KT 9999 FEW030 FEW240 21/17 A2980 RMK SLP089 T02060172 10239 20206 55000
RJOI 211655Z 32005KT 9999 FEW030 FEW240 21/18 A2979 RMK SLP088 T02110178
RJOI 211555Z 30006KT 9999 FEW030 FEW240 22/18 A2980 RMK SLP091 T02170183
RJOI 211455Z 30005KT 9999 FEW030 FEW240 22/18 A2980 RMK SLP092 T02220183 402720206 52017
RJOI 211355Z 32004KT 9999 FEW030 FEW240 23/19 A2979 RMK SLP088 T02280189
RJOI 211255Z 33005KT 9999 FEW030 SCT240 24/19 A2978 RMK SLP084 T02390194
RJOI 211155Z COR 01004KT 9999 FEW030 SCT240 23/20 A2975 RMK SLP074 T02330200 10272 20228 51017
RJOI 211055Z 01004KT 9999 FEW030 FEW120 BKN240 23/20 A2974 RMK SLP070 T02330200
RJOI 210955Z 01004KT 9999 FEW030 FEW120 BKN240 26/20 A2973 RMK SLP066 T02560200
RJOI 210855Z 00000KT 9999 FEW030 BKN240 27/19 A2971 RMK SLP059 T02720189 52007
RJOI 210755Z 14009KT 9999 FEW030 SCT170 BKN240 27/20 A2970 RMK SLP057 MDT CU NW T02670200